sensor_id;sensor_type;location;lat;lon;timestamp;P1;durP1;ratioP1;P2;durP2;ratioP2
61640;SDS011;62201;49.966;8.342;2023-03-01T00:01:38;13.77;;;9.53;;
61640;SDS011;62201;49.966;8.342;2023-03-01T00:04:03;14.60;;;9.40;;
61640;SDS011;62201;49.966;8.342;2023-03-01T00:06:29;15.87;;;9.43;;
61640;SDS011;62201;49.966;8.342;2023-03-01T00:08:54;16.87;;;9.73;;
61640;SDS011;62201;49.966;8.342;2023-03-01T00:11:21;14.30;;;9.47;;
61640;SDS011;62201;49.966;8.342;2023-03-01T00:13:48;19.67;;;9.80;;
61640;SDS011;62201;49.966;8.342;2023-03-01T00:16:16;15.17;;;10.10;;
61640;SDS011;62201;49.966;8.342;2023-03-01T00:18:44;15.03;;;9.97;;
61640;SDS011;62201;49.966;8.342;2023-03-01T00:21:10;16.07;;;10.17;;
61640;SDS011;62201;49.966;8.342;2023-03-01T00:23:37;15.40;;;9.53;;
61640;SDS011;62201;49.966;8.342;2023-03-01T00:26:05;16.77;;;10.67;;
61640;SDS011;62201;49.966;8.342;2023-03-01T00:28:33;17.70;;;9.60;;
61640;SDS011;62201;49.966;8.342;2023-03-01T00:33:30;17.38;;;9.98;;
61640;SDS011;62201;49.966;8.342;2023-03-01T00:35:57;16.57;;;9.50;;
61640;SDS011;62201;49.966;8.342;2023-03-01T00:38:23;15.07;;;9.33;;
61640;SDS011;62201;49.966;8.342;2023-03-01T00:40:49;15.13;;;9.80;;
61640;SDS011;62201;49.966;8.342;2023-03-01T00:43:14;15.97;;;10.07;;
61640;SDS011;62201;49.966;8.342;2023-03-01T00:45:40;16.03;;;10.30;;
61640;SDS011;62201;49.966;8.342;2023-03-01T00:48:05;18.67;;;10.00;;
61640;SDS011;62201;49.966;8.342;2023-03-01T00:50:30;17.50;;;11.13;;
61640;SDS011;62201;49.966;8.342;2023-03-01T00:52:56;18.17;;;10.23;;
61640;SDS011;62201;49.966;8.342;2023-03-01T00:55:21;14.03;;;9.60;;
61640;SDS011;62201;49.966;8.342;2023-03-01T00:57:48;16.80;;;9.33;;
61640;SDS011;62201;49.966;8.342;2023-03-01T01:00:13;16.20;;;10.37;;
61640;SDS011;62201;49.966;8.342;2023-03-01T01:02:39;14.23;;;9.90;;
61640;SDS011;62201;49.966;8.342;2023-03-01T01:05:05;17.50;;;9.30;;
61640;SDS011;62201;49.966;8.342;2023-03-01T01:07:31;16.93;;;10.20;;
61640;SDS011;62201;49.966;8.342;2023-03-01T01:09:56;16.83;;;10.43;;
61640;SDS011;62201;49.966;8.342;2023-03-01T01:12:22;13.60;;;9.63;;
61640;SDS011;62201;49.966;8.342;2023-03-01T01:14:47;15.47;;;10.30;;
61640;SDS011;62201;49.966;8.342;2023-03-01T01:17:12;16.20;;;10.50;;
61640;SDS011;62201;49.966;8.342;2023-03-01T01:19:38;15.83;;;10.63;;
61640;SDS011;62201;49.966;8.342;2023-03-01T01:22:03;17.17;;;10.80;;
61640;SDS011;62201;49.966;8.342;2023-03-01T01:24:29;16.40;;;10.40;;
61640;SDS011;62201;49.966;8.342;2023-03-01T01:26:54;16.83;;;10.33;;
61640;SDS011;62201;49.966;8.342;2023-03-01T01:29:20;19.07;;;11.17;;
61640;SDS011;62201;49.966;8.342;2023-03-01T01:31:46;15.57;;;9.77;;
61640;SDS011;62201;49.966;8.342;2023-03-01T01:34:15;17.43;;;11.00;;
61640;SDS011;62201;49.966;8.342;2023-03-01T01:36:43;17.53;;;9.97;;
61640;SDS011;62201;49.966;8.342;2023-03-01T01:39:09;15.20;;;10.30;;
61640;SDS011;62201;49.966;8.342;2023-03-01T01:41:38;17.57;;;10.60;;
61640;SDS011;62201;49.966;8.342;2023-03-01T01:44:13;17.23;;;10.63;;
61640;SDS011;62201;49.966;8.342;2023-03-01T01:54:38;16.87;;;10.63;;
61640;SDS011;62201;49.966;8.342;2023-03-01T01:57:12;16.80;;;10.87;;
61640;SDS011;62201;49.966;8.342;2023-03-01T02:00:04;18.00;;;9.83;;
61640;SDS011;62201;49.966;8.342;2023-03-01T02:02:32;14.63;;;10.53;;
61640;SDS011;62201;49.966;8.342;2023-03-01T02:05:03;15.27;;;10.50;;
61640;SDS011;62201;49.966;8.342;2023-03-01T02:07:40;22.27;;;11.23;;
61640;SDS011;62201;49.966;8.342;2023-03-01T02:10:07;16.10;;;10.57;;
61640;SDS011;62201;49.966;8.342;2023-03-01T02:12:33;14.37;;;9.83;;
61640;SDS011;62201;49.966;8.342;2023-03-01T02:14:59;15.27;;;10.50;;
61640;SDS011;62201;49.966;8.342;2023-03-01T02:17:24;15.70;;;10.90;;
61640;SDS011;62201;49.966;8.342;2023-03-01T02:22:41;15.53;;;10.57;;
61640;SDS011;62201;49.966;8.342;2023-03-01T02:25:30;17.00;;;10.97;;
61640;SDS011;62201;49.966;8.342;2023-03-01T02:28:04;17.03;;;10.47;;
61640;SDS011;62201;49.966;8.342;2023-03-01T02:30:40;18.83;;;11.37;;
61640;SDS011;62201;49.966;8.342;2023-03-01T02:33:27;16.43;;;11.70;;
61640;SDS011;62201;49.966;8.342;2023-03-01T02:35:53;17.17;;;10.93;;
61640;SDS011;62201;49.966;8.342;2023-03-01T02:38:20;18.50;;;11.10;;
61640;SDS011;62201;49.966;8.342;2023-03-01T02:40:47;19.17;;;10.93;;
61640;SDS011;62201;49.966;8.342;2023-03-01T02:43:15;19.83;;;11.17;;
61640;SDS011;62201;49.966;8.342;2023-03-01T02:45:49;19.23;;;11.27;;
61640;SDS011;62201;49.966;8.342;2023-03-01T02:48:15;17.08;;;11.00;;
61640;SDS011;62201;49.966;8.342;2023-03-01T02:56:28;17.00;;;10.32;;
61640;SDS011;62201;49.966;8.342;2023-03-01T02:58:54;17.87;;;10.63;;
61640;SDS011;62201;49.966;8.342;2023-03-01T03:01:26;19.10;;;11.27;;
61640;SDS011;62201;49.966;8.342;2023-03-01T03:04:01;18.23;;;11.37;;
61640;SDS011;62201;49.966;8.342;2023-03-01T03:06:30;16.40;;;11.00;;
61640;SDS011;62201;49.966;8.342;2023-03-01T03:08:55;15.93;;;10.70;;
61640;SDS011;62201;49.966;8.342;2023-03-01T03:11:20;16.93;;;11.33;;
61640;SDS011;62201;49.966;8.342;2023-03-01T03:13:46;17.87;;;10.60;;
61640;SDS011;62201;49.966;8.342;2023-03-01T03:16:13;19.37;;;11.30;;
61640;SDS011;62201;49.966;8.342;2023-03-01T03:18:38;17.50;;;11.37;;
61640;SDS011;62201;49.966;8.342;2023-03-01T03:21:07;17.20;;;11.23;;
61640;SDS011;62201;49.966;8.342;2023-03-01T03:23:35;18.53;;;11.30;;
61640;SDS011;62201;49.966;8.342;2023-03-01T03:26:01;16.33;;;11.27;;
61640;SDS011;62201;49.966;8.342;2023-03-01T03:28:29;20.07;;;11.43;;
61640;SDS011;62201;49.966;8.342;2023-03-01T03:30:58;17.97;;;11.73;;
61640;SDS011;62201;49.966;8.342;2023-03-01T03:33:28;18.90;;;11.77;;
61640;SDS011;62201;49.966;8.342;2023-03-01T03:35:56;19.27;;;11.57;;
61640;SDS011;62201;49.966;8.342;2023-03-01T03:38:22;18.20;;;11.20;;
61640;SDS011;62201;49.966;8.342;2023-03-01T03:43:21;17.10;;;11.33;;
61640;SDS011;62201;49.966;8.342;2023-03-01T03:45:48;17.80;;;11.27;;
61640;SDS011;62201;49.966;8.342;2023-03-01T03:48:15;17.27;;;11.70;;
61640;SDS011;62201;49.966;8.342;2023-03-01T03:50:41;18.57;;;11.47;;
61640;SDS011;62201;49.966;8.342;2023-03-01T03:53:09;19.93;;;10.70;;
61640;SDS011;62201;49.966;8.342;2023-03-01T03:55:36;18.97;;;11.70;;
61640;SDS011;62201;49.966;8.342;2023-03-01T03:58:04;18.83;;;11.67;;
61640;SDS011;62201;49.966;8.342;2023-03-01T04:00:35;19.83;;;11.73;;
61640;SDS011;62201;49.966;8.342;2023-03-01T04:03:06;18.50;;;11.67;;
61640;SDS011;62201;49.966;8.342;2023-03-01T04:05:32;17.53;;;11.60;;
61640;SDS011;62201;49.966;8.342;2023-03-01T04:07:58;18.90;;;11.90;;
61640;SDS011;62201;49.966;8.342;2023-03-01T04:10:29;17.27;;;11.73;;
61640;SDS011;62201;49.966;8.342;2023-03-01T04:12:57;21.47;;;12.70;;
61640;SDS011;62201;49.966;8.342;2023-03-01T04:15:23;18.10;;;11.83;;
61640;SDS011;62201;49.966;8.342;2023-03-01T04:17:50;17.07;;;11.20;;
61640;SDS011;62201;49.966;8.342;2023-03-01T04:20:20;20.00;;;12.30;;
61640;SDS011;62201;49.966;8.342;2023-03-01T04:25:49;19.53;;;11.80;;
61640;SDS011;62201;49.966;8.342;2023-03-01T04:28:32;22.73;;;12.40;;
61640;SDS011;62201;49.966;8.342;2023-03-01T04:31:01;20.33;;;12.13;;
61640;SDS011;62201;49.966;8.342;2023-03-01T04:33:37;17.73;;;11.57;;
61640;SDS011;62201;49.966;8.342;2023-03-01T04:36:11;21.97;;;12.90;;
61640;SDS011;62201;49.966;8.342;2023-03-01T04:38:38;21.90;;;12.43;;
61640;SDS011;62201;49.966;8.342;2023-03-01T04:41:08;18.87;;;12.40;;
61640;SDS011;62201;49.966;8.342;2023-03-01T04:43:35;20.73;;;12.87;;
61640;SDS011;62201;49.966;8.342;2023-03-01T04:46:01;19.27;;;12.00;;
61640;SDS011;62201;49.966;8.342;2023-03-01T04:48:33;20.50;;;12.97;;
61640;SDS011;62201;49.966;8.342;2023-03-01T04:50:59;19.03;;;12.33;;
61640;SDS011;62201;49.966;8.342;2023-03-01T04:53:24;21.23;;;12.83;;
61640;SDS011;62201;49.966;8.342;2023-03-01T04:55:50;20.43;;;12.77;;
61640;SDS011;62201;49.966;8.342;2023-03-01T04:58:16;22.57;;;13.50;;
61640;SDS011;62201;49.966;8.342;2023-03-01T05:00:41;20.23;;;12.47;;
61640;SDS011;62201;49.966;8.342;2023-03-01T05:03:07;23.17;;;13.83;;
61640;SDS011;62201;49.966;8.342;2023-03-01T05:05:37;21.47;;;13.17;;
61640;SDS011;62201;49.966;8.342;2023-03-01T05:08:05;21.73;;;12.87;;
61640;SDS011;62201;49.966;8.342;2023-03-01T05:10:32;19.57;;;12.83;;
61640;SDS011;62201;49.966;8.342;2023-03-01T05:13:00;20.40;;;13.00;;
61640;SDS011;62201;49.966;8.342;2023-03-01T05:15:27;20.57;;;13.30;;
61640;SDS011;62201;49.966;8.342;2023-03-01T05:17:55;22.43;;;13.53;;
61640;SDS011;62201;49.966;8.342;2023-03-01T05:20:24;22.03;;;13.37;;
61640;SDS011;62201;49.966;8.342;2023-03-01T05:22:51;22.50;;;13.63;;
61640;SDS011;62201;49.966;8.342;2023-03-01T05:25:19;23.07;;;13.93;;
61640;SDS011;62201;49.966;8.342;2023-03-01T05:27:46;20.97;;;13.27;;
61640;SDS011;62201;49.966;8.342;2023-03-01T05:30:12;20.63;;;13.70;;
61640;SDS011;62201;49.966;8.342;2023-03-01T05:32:42;22.17;;;14.30;;
61640;SDS011;62201;49.966;8.342;2023-03-01T05:35:12;24.57;;;14.17;;
61640;SDS011;62201;49.966;8.342;2023-03-01T05:37:42;22.80;;;14.13;;
61640;SDS011;62201;49.966;8.342;2023-03-01T05:40:12;23.20;;;13.70;;
61640;SDS011;62201;49.966;8.342;2023-03-01T05:42:50;24.47;;;13.97;;
61640;SDS011;62201;49.966;8.342;2023-03-01T05:45:20;26.80;;;13.57;;
61640;SDS011;62201;49.966;8.342;2023-03-01T05:47:47;22.53;;;14.07;;
61640;SDS011;62201;49.966;8.342;2023-03-01T05:50:14;24.93;;;14.57;;
61640;SDS011;62201;49.966;8.342;2023-03-01T05:52:48;22.60;;;13.67;;
61640;SDS011;62201;49.966;8.342;2023-03-01T05:55:16;24.67;;;13.73;;
61640;SDS011;62201;49.966;8.342;2023-03-01T05:57:42;23.23;;;14.13;;
61640;SDS011;62201;49.966;8.342;2023-03-01T06:00:08;21.67;;;13.57;;
61640;SDS011;62201;49.966;8.342;2023-03-01T06:02:35;21.43;;;14.13;;
61640;SDS011;62201;49.966;8.342;2023-03-01T06:05:00;22.77;;;13.67;;
61640;SDS011;62201;49.966;8.342;2023-03-01T06:07:26;23.73;;;13.97;;
61640;SDS011;62201;49.966;8.342;2023-03-01T06:09:51;20.57;;;13.27;;
61640;SDS011;62201;49.966;8.342;2023-03-01T06:12:17;24.97;;;13.60;;
61640;SDS011;62201;49.966;8.342;2023-03-01T06:14:42;23.87;;;13.00;;
61640;SDS011;62201;49.966;8.342;2023-03-01T06:17:07;23.67;;;12.50;;
61640;SDS011;62201;49.966;8.342;2023-03-01T06:19:33;21.83;;;13.03;;
61640;SDS011;62201;49.966;8.342;2023-03-01T06:21:58;21.80;;;13.60;;
61640;SDS011;62201;49.966;8.342;2023-03-01T06:24:24;23.70;;;13.83;;
61640;SDS011;62201;49.966;8.342;2023-03-01T06:26:49;21.33;;;12.70;;
61640;SDS011;62201;49.966;8.342;2023-03-01T06:29:14;21.47;;;13.10;;
61640;SDS011;62201;49.966;8.342;2023-03-01T06:31:40;22.93;;;13.70;;
61640;SDS011;62201;49.966;8.342;2023-03-01T06:34:05;22.00;;;12.73;;
61640;SDS011;62201;49.966;8.342;2023-03-01T06:36:30;22.77;;;13.47;;
61640;SDS011;62201;49.966;8.342;2023-03-01T06:38:56;21.10;;;13.53;;
61640;SDS011;62201;49.966;8.342;2023-03-01T06:41:21;20.47;;;13.33;;
61640;SDS011;62201;49.966;8.342;2023-03-01T06:43:47;21.93;;;13.87;;
61640;SDS011;62201;49.966;8.342;2023-03-01T06:46:12;24.07;;;12.70;;
61640;SDS011;62201;49.966;8.342;2023-03-01T06:48:37;21.73;;;12.73;;
61640;SDS011;62201;49.966;8.342;2023-03-01T06:51:03;22.63;;;10.50;;
61640;SDS011;62201;49.966;8.342;2023-03-01T06:53:29;20.03;;;13.30;;
61640;SDS011;62201;49.966;8.342;2023-03-01T06:55:55;25.00;;;13.37;;
61640;SDS011;62201;49.966;8.342;2023-03-01T06:58:21;21.43;;;13.00;;
61640;SDS011;62201;49.966;8.342;2023-03-01T07:00:47;21.93;;;13.30;;
61640;SDS011;62201;49.966;8.342;2023-03-01T07:03:12;22.17;;;13.20;;
61640;SDS011;62201;49.966;8.342;2023-03-01T07:05:38;20.37;;;12.43;;
61640;SDS011;62201;49.966;8.342;2023-03-01T07:08:03;21.63;;;12.83;;
61640;SDS011;62201;49.966;8.342;2023-03-01T07:10:29;21.47;;;13.43;;
61640;SDS011;62201;49.966;8.342;2023-03-01T07:12:55;22.13;;;12.50;;
61640;SDS011;62201;49.966;8.342;2023-03-01T07:15:21;19.77;;;13.20;;
61640;SDS011;62201;49.966;8.342;2023-03-01T07:17:46;18.73;;;12.80;;
61640;SDS011;62201;49.966;8.342;2023-03-01T07:20:14;21.13;;;13.30;;
61640;SDS011;62201;49.966;8.342;2023-03-01T07:22:40;22.27;;;13.10;;
61640;SDS011;62201;49.966;8.342;2023-03-01T07:25:07;20.17;;;12.97;;
61640;SDS011;62201;49.966;8.342;2023-03-01T07:27:33;21.53;;;13.03;;
61640;SDS011;62201;49.966;8.342;2023-03-01T07:29:58;20.53;;;12.87;;
61640;SDS011;62201;49.966;8.342;2023-03-01T07:32:23;22.67;;;12.80;;
61640;SDS011;62201;49.966;8.342;2023-03-01T07:34:50;28.63;;;14.17;;
61640;SDS011;62201;49.966;8.342;2023-03-01T07:37:16;23.87;;;13.77;;
61640;SDS011;62201;49.966;8.342;2023-03-01T07:39:41;28.07;;;14.23;;
61640;SDS011;62201;49.966;8.342;2023-03-01T07:42:07;24.40;;;14.70;;
61640;SDS011;62201;49.966;8.342;2023-03-01T07:44:32;23.53;;;14.43;;
61640;SDS011;62201;49.966;8.342;2023-03-01T07:46:59;20.47;;;12.97;;
61640;SDS011;62201;49.966;8.342;2023-03-01T07:49:24;25.73;;;13.93;;
61640;SDS011;62201;49.966;8.342;2023-03-01T07:51:51;20.93;;;13.73;;
61640;SDS011;62201;49.966;8.342;2023-03-01T07:54:16;23.00;;;12.07;;
61640;SDS011;62201;49.966;8.342;2023-03-01T07:56:43;24.47;;;13.87;;
61640;SDS011;62201;49.966;8.342;2023-03-01T07:59:08;23.50;;;15.13;;
61640;SDS011;62201;49.966;8.342;2023-03-01T08:01:34;21.97;;;14.00;;
61640;SDS011;62201;49.966;8.342;2023-03-01T08:03:59;23.00;;;13.77;;
61640;SDS011;62201;49.966;8.342;2023-03-01T08:06:25;22.93;;;14.17;;
61640;SDS011;62201;49.966;8.342;2023-03-01T08:08:50;22.77;;;13.93;;
61640;SDS011;62201;49.966;8.342;2023-03-01T08:11:15;19.87;;;12.60;;
61640;SDS011;62201;49.966;8.342;2023-03-01T08:13:42;20.67;;;12.57;;
61640;SDS011;62201;49.966;8.342;2023-03-01T08:16:10;19.13;;;12.70;;
61640;SDS011;62201;49.966;8.342;2023-03-01T08:18:37;18.77;;;11.67;;
61640;SDS011;62201;49.966;8.342;2023-03-01T08:21:07;24.37;;;13.67;;
61640;SDS011;62201;49.966;8.342;2023-03-01T08:23:34;22.30;;;11.90;;
61640;SDS011;62201;49.966;8.342;2023-03-01T08:26:10;21.87;;;13.53;;
61640;SDS011;62201;49.966;8.342;2023-03-01T08:28:40;19.13;;;12.40;;
61640;SDS011;62201;49.966;8.342;2023-03-01T08:31:14;20.67;;;12.47;;
61640;SDS011;62201;49.966;8.342;2023-03-01T08:33:47;18.70;;;11.70;;
61640;SDS011;62201;49.966;8.342;2023-03-01T08:36:16;18.30;;;11.80;;
61640;SDS011;62201;49.966;8.342;2023-03-01T08:38:42;14.27;;;8.60;;
61640;SDS011;62201;49.966;8.342;2023-03-01T08:41:08;20.20;;;12.60;;
61640;SDS011;62201;49.966;8.342;2023-03-01T08:43:33;16.70;;;10.23;;
61640;SDS011;62201;49.966;8.342;2023-03-01T08:45:59;17.90;;;11.80;;
61640;SDS011;62201;49.966;8.342;2023-03-01T08:48:24;17.23;;;11.53;;
61640;SDS011;62201;49.966;8.342;2023-03-01T08:50:52;18.37;;;11.40;;
61640;SDS011;62201;49.966;8.342;2023-03-01T08:53:17;20.30;;;11.30;;
61640;SDS011;62201;49.966;8.342;2023-03-01T08:55:43;18.43;;;11.67;;
61640;SDS011;62201;49.966;8.342;2023-03-01T08:58:08;19.27;;;11.67;;
61640;SDS011;62201;49.966;8.342;2023-03-01T09:00:33;17.70;;;11.57;;
61640;SDS011;62201;49.966;8.342;2023-03-01T09:02:59;18.60;;;11.67;;
61640;SDS011;62201;49.966;8.342;2023-03-01T09:05:25;20.43;;;11.67;;
61640;SDS011;62201;49.966;8.342;2023-03-01T09:07:50;21.30;;;11.17;;
61640;SDS011;62201;49.966;8.342;2023-03-01T09:10:15;16.37;;;11.10;;
61640;SDS011;62201;49.966;8.342;2023-03-01T09:12:41;19.53;;;11.77;;
61640;SDS011;62201;49.966;8.342;2023-03-01T09:15:06;16.90;;;10.40;;
61640;SDS011;62201;49.966;8.342;2023-03-01T09:17:32;17.93;;;10.97;;
61640;SDS011;62201;49.966;8.342;2023-03-01T09:19:58;17.60;;;11.20;;
61640;SDS011;62201;49.966;8.342;2023-03-01T09:22:24;16.90;;;8.87;;
61640;SDS011;62201;49.966;8.342;2023-03-01T09:24:50;17.40;;;11.60;;
61640;SDS011;62201;49.966;8.342;2023-03-01T09:27:15;14.93;;;8.90;;
61640;SDS011;62201;49.966;8.342;2023-03-01T09:29:43;16.90;;;11.53;;
61640;SDS011;62201;49.966;8.342;2023-03-01T09:32:09;18.40;;;11.77;;
61640;SDS011;62201;49.966;8.342;2023-03-01T09:34:34;18.23;;;11.27;;
61640;SDS011;62201;49.966;8.342;2023-03-01T09:37:20;19.07;;;11.40;;
61640;SDS011;62201;49.966;8.342;2023-03-01T09:39:48;20.20;;;11.63;;
61640;SDS011;62201;49.966;8.342;2023-03-01T09:42:14;19.47;;;11.07;;
61640;SDS011;62201;49.966;8.342;2023-03-01T09:44:51;18.97;;;10.20;;
61640;SDS011;62201;49.966;8.342;2023-03-01T09:47:32;22.03;;;11.30;;
61640;SDS011;62201;49.966;8.342;2023-03-01T09:50:16;13.43;;;9.67;;
61640;SDS011;62201;49.966;8.342;2023-03-01T09:52:54;19.38;;;10.93;;
61640;SDS011;62201;49.966;8.342;2023-03-01T09:55:30;15.57;;;11.18;;
61640;SDS011;62201;49.966;8.342;2023-03-01T10:00:47;15.70;;;10.57;;
61640;SDS011;62201;49.966;8.342;2023-03-01T10:05:52;20.52;;;12.68;;
61640;SDS011;62201;49.966;8.342;2023-03-01T10:08:28;17.42;;;11.95;;
61640;SDS011;62201;49.966;8.342;2023-03-01T10:14:18;18.98;;;11.43;;
61640;SDS011;62201;49.966;8.342;2023-03-01T10:22:20;15.55;;;11.43;;
61640;SDS011;62201;49.966;8.342;2023-03-01T10:24:57;16.83;;;11.63;;
61640;SDS011;62201;49.966;8.342;2023-03-01T10:27:34;17.52;;;11.43;;
61640;SDS011;62201;49.966;8.342;2023-03-01T10:30:13;14.65;;;11.57;;
61640;SDS011;62201;49.966;8.342;2023-03-01T10:32:45;16.00;;;11.73;;
61640;SDS011;62201;49.966;8.342;2023-03-01T10:35:15;19.38;;;11.32;;
61640;SDS011;62201;49.966;8.342;2023-03-01T10:37:58;14.60;;;11.45;;
61640;SDS011;62201;49.966;8.342;2023-03-01T10:40:31;15.23;;;10.93;;
61640;SDS011;62201;49.966;8.342;2023-03-01T10:42:58;20.73;;;11.70;;
61640;SDS011;62201;49.966;8.342;2023-03-01T10:51:12;22.38;;;11.30;;
61640;SDS011;62201;49.966;8.342;2023-03-01T10:53:49;19.25;;;12.38;;
61640;SDS011;62201;49.966;8.342;2023-03-01T10:56:16;19.73;;;12.18;;
61640;SDS011;62201;49.966;8.342;2023-03-01T10:59:04;18.52;;;11.85;;
61640;SDS011;62201;49.966;8.342;2023-03-01T11:01:31;16.50;;;12.10;;
61640;SDS011;62201;49.966;8.342;2023-03-01T11:04:08;22.40;;;12.10;;
61640;SDS011;62201;49.966;8.342;2023-03-01T11:06:41;17.45;;;11.35;;
61640;SDS011;62201;49.966;8.342;2023-03-01T11:09:22;17.33;;;10.57;;
61640;SDS011;62201;49.966;8.342;2023-03-01T11:11:53;15.85;;;11.35;;
61640;SDS011;62201;49.966;8.342;2023-03-01T11:14:24;16.20;;;11.18;;
61640;SDS011;62201;49.966;8.342;2023-03-01T11:16:58;17.23;;;10.90;;
61640;SDS011;62201;49.966;8.342;2023-03-01T11:19:38;15.32;;;11.07;;
61640;SDS011;62201;49.966;8.342;2023-03-01T11:27:34;17.48;;;11.30;;
61640;SDS011;62201;49.966;8.342;2023-03-01T11:39:15;17.35;;;11.40;;
61640;SDS011;62201;49.966;8.342;2023-03-01T11:41:58;14.85;;;9.07;;
61640;SDS011;62201;49.966;8.342;2023-03-01T11:45:06;17.95;;;10.60;;
61640;SDS011;62201;49.966;8.342;2023-03-01T11:47:49;16.05;;;10.88;;
61640;SDS011;62201;49.966;8.342;2023-03-01T11:50:41;15.27;;;10.55;;
61640;SDS011;62201;49.966;8.342;2023-03-01T11:56:28;17.13;;;10.80;;
61640;SDS011;62201;49.966;8.342;2023-03-01T12:12:58;16.73;;;10.73;;
61640;SDS011;62201;49.966;8.342;2023-03-01T12:15:47;14.48;;;9.98;;
61640;SDS011;62201;49.966;8.342;2023-03-01T12:21:24;15.93;;;9.75;;
61640;SDS011;62201;49.966;8.342;2023-03-01T12:24:10;18.08;;;10.25;;
61640;SDS011;62201;49.966;8.342;2023-03-01T12:39:18;14.30;;;8.43;;
61640;SDS011;62201;49.966;8.342;2023-03-01T12:44:23;13.82;;;9.52;;
61640;SDS011;62201;49.966;8.342;2023-03-01T12:47:10;15.10;;;8.80;;
61640;SDS011;62201;49.966;8.342;2023-03-01T12:50:12;12.50;;;8.95;;
61640;SDS011;62201;49.966;8.342;2023-03-01T12:54:05;17.25;;;8.40;;
61640;SDS011;62201;49.966;8.342;2023-03-01T12:59:18;13.05;;;8.15;;
61640;SDS011;62201;49.966;8.342;2023-03-01T13:02:02;13.45;;;9.20;;
61640;SDS011;62201;49.966;8.342;2023-03-01T13:04:40;13.68;;;8.73;;
61640;SDS011;62201;49.966;8.342;2023-03-01T13:15:32;12.07;;;8.52;;
61640;SDS011;62201;49.966;8.342;2023-03-01T13:20:46;14.57;;;8.93;;
61640;SDS011;62201;49.966;8.342;2023-03-01T13:31:03;11.48;;;7.65;;
61640;SDS011;62201;49.966;8.342;2023-03-01T13:35:59;9.75;;;7.57;;
61640;SDS011;62201;49.966;8.342;2023-03-01T13:41:15;15.68;;;7.75;;
61640;SDS011;62201;49.966;8.342;2023-03-01T13:43:46;10.93;;;6.47;;
61640;SDS011;62201;49.966;8.342;2023-03-01T13:46:20;15.05;;;7.90;;
61640;SDS011;62201;49.966;8.342;2023-03-01T13:48:53;12.02;;;7.60;;
61640;SDS011;62201;49.966;8.342;2023-03-01T13:51:27;11.45;;;7.35;;
61640;SDS011;62201;49.966;8.342;2023-03-01T13:53:56;11.73;;;7.70;;
61640;SDS011;62201;49.966;8.342;2023-03-01T13:56:27;10.23;;;7.38;;
61640;SDS011;62201;49.966;8.342;2023-03-01T13:58:58;11.30;;;7.60;;
61640;SDS011;62201;49.966;8.342;2023-03-01T14:01:29;13.18;;;7.60;;
61640;SDS011;62201;49.966;8.342;2023-03-01T14:03:56;10.60;;;6.88;;
61640;SDS011;62201;49.966;8.342;2023-03-01T14:06:25;11.40;;;6.75;;
61640;SDS011;62201;49.966;8.342;2023-03-01T14:15:02;10.77;;;6.82;;
61640;SDS011;62201;49.966;8.342;2023-03-01T14:20:42;10.18;;;6.22;;
61640;SDS011;62201;49.966;8.342;2023-03-01T14:23:21;11.10;;;7.28;;
61640;SDS011;62201;49.966;8.342;2023-03-01T14:25:53;10.05;;;6.97;;
61640;SDS011;62201;49.966;8.342;2023-03-01T14:28:33;13.45;;;7.35;;
61640;SDS011;62201;49.966;8.342;2023-03-01T14:34:16;12.45;;;7.63;;
61640;SDS011;62201;49.966;8.342;2023-03-01T14:36:46;12.68;;;6.75;;
61640;SDS011;62201;49.966;8.342;2023-03-01T14:39:18;9.13;;;6.85;;
61640;SDS011;62201;49.966;8.342;2023-03-01T14:41:53;10.07;;;6.85;;
61640;SDS011;62201;49.966;8.342;2023-03-01T14:44:25;11.73;;;7.55;;
61640;SDS011;62201;49.966;8.342;2023-03-01T14:46:54;9.70;;;7.00;;
61640;SDS011;62201;49.966;8.342;2023-03-01T14:49:26;16.33;;;7.63;;
61640;SDS011;62201;49.966;8.342;2023-03-01T14:54:44;11.00;;;7.07;;
61640;SDS011;62201;49.966;8.342;2023-03-01T15:00:52;10.63;;;7.20;;
61640;SDS011;62201;49.966;8.342;2023-03-01T15:03:46;11.18;;;7.00;;
61640;SDS011;62201;49.966;8.342;2023-03-01T15:09:42;14.55;;;6.95;;
61640;SDS011;62201;49.966;8.342;2023-03-01T15:14:55;11.18;;;7.18;;
61640;SDS011;62201;49.966;8.342;2023-03-01T15:17:34;13.98;;;7.10;;
61640;SDS011;62201;49.966;8.342;2023-03-01T15:20:04;12.50;;;7.45;;
61640;SDS011;62201;49.966;8.342;2023-03-01T15:22:32;11.50;;;7.32;;
61640;SDS011;62201;49.966;8.342;2023-03-01T15:25:01;12.75;;;7.10;;
61640;SDS011;62201;49.966;8.342;2023-03-01T15:27:36;11.18;;;6.97;;
61640;SDS011;62201;49.966;8.342;2023-03-01T15:30:41;10.85;;;7.53;;
61640;SDS011;62201;49.966;8.342;2023-03-01T15:35:55;11.00;;;7.00;;
61640;SDS011;62201;49.966;8.342;2023-03-01T15:38:28;12.40;;;6.90;;
61640;SDS011;62201;49.966;8.342;2023-03-01T15:40:57;10.05;;;6.85;;
61640;SDS011;62201;49.966;8.342;2023-03-01T15:43:44;13.55;;;7.18;;
61640;SDS011;62201;49.966;8.342;2023-03-01T15:49:04;11.32;;;6.13;;
61640;SDS011;62201;49.966;8.342;2023-03-01T15:51:49;12.30;;;7.57;;
61640;SDS011;62201;49.966;8.342;2023-03-01T15:54:20;9.93;;;6.07;;
61640;SDS011;62201;49.966;8.342;2023-03-01T15:56:49;10.67;;;6.93;;
61640;SDS011;62201;49.966;8.342;2023-03-01T15:59:23;12.48;;;7.20;;
61640;SDS011;62201;49.966;8.342;2023-03-01T16:01:49;14.90;;;6.90;;
61640;SDS011;62201;49.966;8.342;2023-03-01T16:04:18;15.63;;;6.68;;
61640;SDS011;62201;49.966;8.342;2023-03-01T16:06:56;9.98;;;6.70;;
61640;SDS011;62201;49.966;8.342;2023-03-01T16:09:22;10.15;;;6.50;;
61640;SDS011;62201;49.966;8.342;2023-03-01T16:11:51;10.20;;;6.88;;
61640;SDS011;62201;49.966;8.342;2023-03-01T16:14:20;10.98;;;6.75;;
61640;SDS011;62201;49.966;8.342;2023-03-01T16:16:49;13.77;;;6.03;;
61640;SDS011;62201;49.966;8.342;2023-03-01T16:19:17;12.50;;;6.85;;
61640;SDS011;62201;49.966;8.342;2023-03-01T16:21:51;10.45;;;6.35;;
61640;SDS011;62201;49.966;8.342;2023-03-01T16:24:17;10.20;;;6.72;;
61640;SDS011;62201;49.966;8.342;2023-03-01T16:26:55;9.63;;;6.28;;
61640;SDS011;62201;49.966;8.342;2023-03-01T16:29:23;11.18;;;6.68;;
61640;SDS011;62201;49.966;8.342;2023-03-01T16:31:55;11.73;;;7.25;;
61640;SDS011;62201;49.966;8.342;2023-03-01T16:34:23;12.65;;;7.15;;
61640;SDS011;62201;49.966;8.342;2023-03-01T16:36:49;10.38;;;6.70;;
61640;SDS011;62201;49.966;8.342;2023-03-01T16:39:21;9.88;;;6.80;;
61640;SDS011;62201;49.966;8.342;2023-03-01T16:41:50;12.27;;;7.00;;
61640;SDS011;62201;49.966;8.342;2023-03-01T16:44:18;13.55;;;7.18;;
61640;SDS011;62201;49.966;8.342;2023-03-01T16:46:44;11.07;;;7.18;;
61640;SDS011;62201;49.966;8.342;2023-03-01T16:49:24;14.85;;;8.52;;
61640;SDS011;62201;49.966;8.342;2023-03-01T16:51:55;11.10;;;7.03;;
61640;SDS011;62201;49.966;8.342;2023-03-01T16:54:21;14.20;;;7.63;;
61640;SDS011;62201;49.966;8.342;2023-03-01T16:56:48;13.50;;;7.33;;
61640;SDS011;62201;49.966;8.342;2023-03-01T16:59:15;9.97;;;6.60;;
61640;SDS011;62201;49.966;8.342;2023-03-01T17:01:44;11.67;;;7.30;;
61640;SDS011;62201;49.966;8.342;2023-03-01T17:04:10;16.03;;;7.67;;
61640;SDS011;62201;49.966;8.342;2023-03-01T17:06:41;16.17;;;7.70;;
61640;SDS011;62201;49.966;8.342;2023-03-01T17:09:06;17.37;;;7.63;;
61640;SDS011;62201;49.966;8.342;2023-03-01T17:11:35;11.33;;;7.47;;
61640;SDS011;62201;49.966;8.342;2023-03-01T17:14:00;13.97;;;8.03;;